Aérodrome :
LOGIN :

S'inscrire | Disclaimer

   EN    FR    IT 

 










Légende :    VFR   VFR Marginal   IFR   IFR Intensif   IFR Très Intensif
Visi : 
Plafond : 
>= 8 km
>= 3000ft
5 à 8 km
1000 à 3000 ft
1500m à 5 km
500 à 1000 ft
800 à 1500m
200 à 500 ft
< 800m
< 200 ft
Symboles :   Orages  Brouillard  Fortes neiges  Fortes précipitations  Vent > 20 kt
SIGMETs :   Divers  Orages  Givrage  Turbulence  Onde Orograph.  Cendres Volcan.






- Altitude de l'aérodrome : 2395 ft
- Code IATA : AMM


OJAI - Queen Alia Int.

DERNIER METAR :
  • 041000Z 00000KT 6000 NSC 24/03 Q1019 NOSIG

METARs EXPIRÉS :
  • 040900Z 00000KT 6000 NSC 23/05 Q1020 NOSIG
  • 040800Z 16006KT 6000 NSC 20/05 Q1021 NOSIG
  • 040700Z 00000KT 5000 HZ NSC 16/07 Q1021 NOSIG

TAF TAF OJAI
Valide du 04 à 06h jusqu'au 05 à 12h UTC


040457Z 0406/0512 13008KT 5000 HZ NSC
BECMG 0421/0423 15014KT 4000
TEMPO 0503/0512 15022KT 3000 BLDU



MET'MAP, la Météo Aéronautique d'un coup d'oeil ! - Copyright ORBIFLY Décembre 2007 - Disclaimer

ORBIFLY MET'MAP TEAM :

Programmation & Développement : Alexandra Zaïnal
Sur une idée originale de : Baudouin d'Aumeries
Assistance à la programmation : Marc-Olivier Méhu
Soutien technique & logistique : Manuel Goepfert

Contact : metmap@orbifly.com




SOURCES & CREDITS :

   NOAA